Time;durP1;ratioP1;P1;durP2;ratioP2;P2;SDS_P1;SDS_P2;PMS_P1;PMS_P2;Temp;Humidity;BMP_temperature;BMP_pressure;BME280_temperature;BME280_humidity;BME280_pressure;Samples;Min_cycle;Max_cycle;Signal;HPM_P1;HPM_P2
2023/02/09 00:02:12;;;;;;;;;;;;;;;;;;5034712;28;19937;-77
2023/02/09 00:04:43;;;;;;;;;;;;;;;;;;5034166;28;20316;-77
2023/02/09 00:07:11;;;;;;;;;;;;;;;;;;5032480;28;19931;-74
2023/02/09 00:09:39;;;;;;;;;;;;;;;;;;5030997;28;21677;-76
2023/02/09 00:14:51;;;;;;;;;;;;;;;;;;5031612;28;21823;-76
2023/02/09 00:17:18;;;;;;;;;;;;;;;;;;5030735;28;20018;-75
2023/02/09 00:19:43;;;;;;;;;;;;;;;;;;5032708;28;20023;-75
2023/02/09 00:22:11;;;;;;;;;;;;;;;;;;5030607;28;20134;-75
2023/02/09 00:24:37;;;;;;;;;;;;;;;;;;5033473;28;19920;-75
2023/02/09 00:27:04;;;;;;;;;;;;;;;;;;5033323;28;20289;-76
2023/02/09 00:29:29;;;;;;;;;;;;;;;;;;5032981;28;20008;-76
2023/02/09 00:31:57;;;;;;;;;;;;;;;;;;5030856;28;19921;-74
2023/02/09 00:34:23;;;;;;;;;;;;;;;;;;5031678;28;20295;-74
2023/02/09 00:36:53;;;;;;;;;;;;;;;;;;5022771;28;19917;-74
2023/02/09 00:39:19;;;;;;;;;;;;;;;;;;5031062;28;20015;-74
2023/02/09 00:44:28;;;;;;;;;;;;;;;;;;5032412;28;21236;-74
2023/02/09 00:46:56;;;;;;;;;;;;;;;;;;5021788;28;19923;-74
2023/02/09 00:49:21;;;;;;;;;;;;;;;;;;5021532;28;20391;-74
2023/02/09 00:51:47;;;;;;;;;;;;;;;;;;5023156;28;19966;-74
2023/02/09 00:54:18;;;;;;;;;;;;;;;;;;5029046;28;20342;-74
2023/02/09 00:56:46;;;;;;;;;;;;;;;;;;5028731;28;19920;-74
2023/02/09 00:59:11;;;;;;;;;;;;;;;;;;5021910;28;20300;-74
2023/02/09 01:01:37;;;;;;;;;;;;;;;;;;5029516;28;19928;-74
2023/02/09 01:04:02;;;;;;;;;;;;;;;;;;5031010;28;19974;-74
2023/02/09 01:06:32;;;;;;;;;;;;;;;;;;5034779;28;19920;-73
2023/02/09 01:09:03;;;;;;;;;;;;;;;;;;5033042;28;19974;-73
2023/02/09 01:11:29;;;;;;;;;;;;;;;;;;5034373;28;20006;-73
2023/02/09 01:13:59;;;;;;;;;;;;;;;;;;5023853;28;20606;-74
2023/02/09 01:16:27;;;;;;;;;;;;;;;;;;5021519;28;19986;-74
2023/02/09 01:18:52;;;;;;;;;;;;;;;;;;5034610;28;19916;-74
2023/02/09 01:21:20;;;;;;;;;;;;;;;;;;5030630;28;20372;-73
2023/02/09 01:23:48;;;;;;;;;;;;;;;;;;5035188;28;20002;-74
2023/02/09 01:26:16;;;;;;;;;;;;;;;;;;5034547;28;20019;-74
2023/02/09 01:28:41;;;;;;;;;;;;;;;;;;5025397;28;20274;-73
2023/02/09 01:31:12;;;;;;;;;;;;;;;;;;5033653;28;19981;-74
2023/02/09 01:33:37;;;;;;;;;;;;;;;;;;5051252;28;19962;-73
2023/02/09 01:36:03;;;;;;;;;;;;;;;;;;5036750;28;19925;-73
2023/02/09 01:38:28;;;;;;;;;;;;;;;;;;5034327;28;19986;-75
2023/02/09 01:40:55;;;;;;;;;;;;;;;;;;5034796;28;20006;-74
2023/02/09 01:43:21;;;;;;;;;;;;;;;;;;5051195;28;19920;-75
2023/02/09 01:45:49;;;;;;;;;;;;;;;;;;5034008;28;19928;-74
2023/02/09 01:48:17;;;;;;;;;;;;;;;;;;5024550;28;19920;-74
2023/02/09 01:50:45;;;;;;;;;;;;;;;;;;5035891;28;19920;-73
2023/02/09 01:53:13;;;;;;;;;;;;;;;;;;5019815;28;19921;-73
2023/02/09 01:55:38;;;;;;;;;;;;;;;;;;5021100;28;19916;-74
2023/02/09 01:58:04;;;;;;;;;;;;;;;;;;5019707;28;20349;-72
2023/02/09 02:00:34;;;;;;;;;;;;;;;;;;5023933;28;19935;-72
2023/02/09 02:03:00;;;;;;;;;;;;;;;;;;5033937;28;19916;-72
2023/02/09 02:05:25;;;;;;;;;;;;;;;;;;5032186;28;19921;-72
2023/02/09 02:07:53;;;;;;;;;;;;;;;;;;5036125;28;19916;-71
2023/02/09 02:10:18;;;;;;;;;;;;;;;;;;5034828;28;19916;-72
2023/02/09 02:12:43;;;;;;;;;;;;;;;;;;5033594;28;19944;-72
2023/02/09 02:15:08;;;;;;;;;;;;;;;;;;5020916;28;20595;-71
2023/02/09 02:17:34;;;;;;;;;;;;;;;;;;5036243;28;20430;-72
2023/02/09 02:20:02;;;;;;;;;;;;;;;;;;5034400;28;19916;-71
2023/02/09 02:22:30;;;;;;;;;;;;;;;;;;5031526;28;19924;-71
2023/02/09 02:24:57;;;;;;;;;;;;;;;;;;5037061;28;20369;-71
2023/02/09 02:27:26;;;;;;;;;;;;;;;;;;5020551;28;20305;-72
2023/02/09 02:29:54;;;;;;;;;;;;;;;;;;5033957;28;19928;-71
2023/02/09 02:32:22;;;;;;;;;;;;;;;;;;5021305;28;20559;-71
2023/02/09 02:34:50;;;;;;;;;;;;;;;;;;5021004;28;20390;-72
2023/02/09 02:37:21;;;;;;;;;;;;;;;;;;5031377;28;19973;-71
2023/02/09 02:39:46;;;;;;;;;;;;;;;;;;5022376;28;19927;-72
2023/02/09 02:44:58;;;;;;;;;;;;;;;;;;5034696;28;19978;-71
2023/02/09 02:47:24;;;;;;;;;;;;;;;;;;5033967;28;20976;-72
2023/02/09 02:49:49;;;;;;;;;;;;;;;;;;5033356;28;19920;-72
2023/02/09 02:52:14;;;;;;;;;;;;;;;;;;5022632;28;19927;-71
2023/02/09 02:54:39;;;;;;;;;;;;;;;;;;5033115;28;19938;-71
2023/02/09 02:57:05;;;;;;;;;;;;;;;;;;5032455;28;19920;-70
2023/02/09 02:59:30;;;;;;;;;;;;;;;;;;5033657;28;19921;-71
2023/02/09 03:01:55;;;;;;;;;;;;;;;;;;5030615;28;20207;-71
2023/02/09 03:04:29;;;;;;;;;;;;;;;;;;5029371;28;20120;-71
2023/02/09 03:06:55;;;;;;;;;;;;;;;;;;5038568;28;20006;-70
2023/02/09 03:09:23;;;;;;;;;;;;;;;;;;5034596;28;19978;-71
2023/02/09 03:11:51;;;;;;;;;;;;;;;;;;5048915;28;19921;-71
2023/02/09 03:14:18;;;;;;;;;;;;;;;;;;5034759;28;19978;-71
2023/02/09 03:16:49;;;;;;;;;;;;;;;;;;5023187;28;20310;-71
2023/02/09 03:19:15;;;;;;;;;;;;;;;;;;5034815;28;19916;-70
2023/02/09 03:21:40;;;;;;;;;;;;;;;;;;5022825;28;19925;-71
2023/02/09 03:24:10;;;;;;;;;;;;;;;;;;5025319;28;20407;-72
2023/02/09 03:26:36;;;;;;;;;;;;;;;;;;5034509;28;20268;-71
2023/02/09 03:29:01;;;;;;;;;;;;;;;;;;5035877;28;19921;-71
2023/02/09 03:31:27;;;;;;;;;;;;;;;;;;5028965;28;19921;-71
2023/02/09 03:33:54;;;;;;;;;;;;;;;;;;5034033;28;19917;-72
2023/02/09 03:36:20;;;;;;;;;;;;;;;;;;5019438;28;20331;-71
2023/02/09 03:38:45;;;;;;;;;;;;;;;;;;5032358;28;20167;-72
2023/02/09 03:41:10;;;;;;;;;;;;;;;;;;5024106;28;20471;-72
2023/02/09 03:46:22;;;;;;;;;;;;;;;;;;5034853;28;19920;-73
2023/02/09 03:48:51;;;;;;;;;;;;;;;;;;5010873;28;19921;-72
2023/02/09 03:51:19;;;;;;;;;;;;;;;;;;5035655;28;19931;-72
2023/02/09 03:53:46;;;;;;;;;;;;;;;;;;5025250;28;19932;-72
2023/02/09 03:56:11;;;;;;;;;;;;;;;;;;5018506;28;20102;-72
2023/02/09 03:58:39;;;;;;;;;;;;;;;;;;5032894;28;19916;-72
2023/02/09 04:01:08;;;;;;;;;;;;;;;;;;5036464;28;19931;-74
2023/02/09 04:03:33;;;;;;;;;;;;;;;;;;5021818;28;19920;-74
2023/02/09 04:05:58;;;;;;;;;;;;;;;;;;5021982;28;19920;-73
2023/02/09 04:08:28;;;;;;;;;;;;;;;;;;5022528;28;20487;-73
2023/02/09 04:10:56;;;;;;;;;;;;;;;;;;5035994;28;19940;-73
2023/02/09 04:13:21;;;;;;;;;;;;;;;;;;5036739;28;20292;-73
2023/02/09 04:15:49;;;;;;;;;;;;;;;;;;5036233;28;19917;-72
2023/02/09 04:18:20;;;;;;;;;;;;;;;;;;5029206;28;19917;-72
2023/02/09 04:20:48;;;;;;;;;;;;;;;;;;5034589;28;19924;-74
2023/02/09 04:23:16;;;;;;;;;;;;;;;;;;5036518;28;19920;-74
2023/02/09 04:25:44;;;;;;;;;;;;;;;;;;5034474;28;19993;-73
2023/02/09 04:28:12;;;;;;;;;;;;;;;;;;5034680;28;19963;-74
2023/02/09 04:30:37;;;;;;;;;;;;;;;;;;5037424;28;19921;-74
2023/02/09 04:33:02;;;;;;;;;;;;;;;;;;5034754;28;19917;-73
2023/02/09 04:35:27;;;;;;;;;;;;;;;;;;5034458;28;19920;-74
2023/02/09 04:37:53;;;;;;;;;;;;;;;;;;5035358;28;19920;-73
2023/02/09 04:40:18;;;;;;;;;;;;;;;;;;5039014;28;20987;-73
2023/02/09 04:42:43;;;;;;;;;;;;;;;;;;5041574;28;19927;-73
2023/02/09 04:45:08;;;;;;;;;;;;;;;;;;5035998;28;20558;-73
2023/02/09 04:47:36;;;;;;;;;;;;;;;;;;5036245;28;20465;-74
2023/02/09 04:50:07;;;;;;;;;;;;;;;;;;5019058;28;19928;-73
2023/02/09 04:52:32;;;;;;;;;;;;;;;;;;5035942;28;19952;-73
2023/02/09 04:54:57;;;;;;;;;;;;;;;;;;5037160;28;20011;-73
2023/02/09 05:00:07;;;;;;;;;;;;;;;;;;5036816;28;20289;-73
2023/02/09 05:02:35;;;;;;;;;;;;;;;;;;5037047;28;19951;-73
2023/02/09 05:05:00;;;;;;;;;;;;;;;;;;5037411;28;20383;-74
2023/02/09 05:07:25;;;;;;;;;;;;;;;;;;5039112;28;20502;-73
2023/02/09 05:09:51;;;;;;;;;;;;;;;;;;5042319;28;19956;-73
2023/02/09 05:12:16;;;;;;;;;;;;;;;;;;5039684;28;19913;-73
2023/02/09 05:14:44;;;;;;;;;;;;;;;;;;5036942;28;19960;-73
2023/02/09 05:17:11;;;;;;;;;;;;;;;;;;5037632;28;20567;-72
2023/02/09 05:22:56;;;;;;;;;;;;;;;;;;5039566;28;19927;-72
2023/02/09 05:25:21;;;;;;;;;;;;;;;;;;5039686;28;20781;-73
2023/02/09 05:27:46;;;;;;;;;;;;;;;;;;5038683;28;19924;-73
2023/02/09 05:30:11;;;;;;;;;;;;;;;;;;5023735;28;20322;-73
2023/02/09 05:32:37;;;;;;;;;;;;;;;;;;5023745;28;20644;-73
2023/02/09 05:35:02;;;;;;;;;;;;;;;;;;5040609;28;20415;-73
2023/02/09 05:37:27;;;;;;;;;;;;;;;;;;5039649;28;20388;-73
2023/02/09 05:39:52;;;;;;;;;;;;;;;;;;5039251;28;20390;-72
2023/02/09 05:42:18;;;;;;;;;;;;;;;;;;5037287;28;21906;-73
2023/02/09 05:44:43;;;;;;;;;;;;;;;;;;5040728;28;19923;-72
2023/02/09 05:47:08;;;;;;;;;;;;;;;;;;5023568;28;20391;-72
2023/02/09 05:49:34;;;;;;;;;;;;;;;;;;5040522;28;20023;-72
2023/02/09 05:51:59;;;;;;;;;;;;;;;;;;5026658;28;20008;-72
2023/02/09 05:54:27;;;;;;;;;;;;;;;;;;5037576;28;20001;-72
2023/02/09 06:00:09;;;;;;;;;;;;;;;;;;5037235;28;20438;-72
2023/02/09 06:02:34;;;;;;;;;;;;;;;;;;5019562;28;19921;-72
2023/02/09 06:04:59;;;;;;;;;;;;;;;;;;5040027;28;19916;-73
2023/02/09 06:07:25;;;;;;;;;;;;;;;;;;5037198;28;19931;-72
2023/02/09 06:09:50;;;;;;;;;;;;;;;;;;5037077;28;19917;-72
2023/02/09 06:12:15;;;;;;;;;;;;;;;;;;5038004;28;19917;-72
2023/02/09 06:14:41;;;;;;;;;;;;;;;;;;5023543;28;19952;-73
2023/02/09 06:17:06;;;;;;;;;;;;;;;;;;5043129;28;20008;-72
2023/02/09 06:19:31;;;;;;;;;;;;;;;;;;5021972;28;20030;-72
2023/02/09 06:21:59;;;;;;;;;;;;;;;;;;5038940;28;19924;-73
2023/02/09 06:24:30;;;;;;;;;;;;;;;;;;5036603;28;20348;-75
2023/02/09 06:26:56;;;;;;;;;;;;;;;;;;5037940;28;21897;-72
2023/02/09 06:29:21;;;;;;;;;;;;;;;;;;5036266;28;20173;-72
2023/02/09 06:31:46;;;;;;;;;;;;;;;;;;5032414;28;20447;-71
2023/02/09 06:34:14;;;;;;;;;;;;;;;;;;5036795;28;20513;-72
2023/02/09 06:36:43;;;;;;;;;;;;;;;;;;5035532;28;19990;-73
2023/02/09 06:39:08;;;;;;;;;;;;;;;;;;5035642;28;19954;-72
2023/02/09 06:41:48;;;;;;;;;;;;;;;;;;5022741;28;20664;-73
2023/02/09 06:44:31;;;;;;;;;;;;;;;;;;5040036;28;19922;-73
2023/02/09 06:46:56;;;;;;;;;;;;;;;;;;5036225;28;19987;-72
2023/02/09 06:49:24;;;;;;;;;;;;;;;;;;5038750;28;19931;-73
2023/02/09 06:51:49;;;;;;;;;;;;;;;;;;5052318;28;20032;-73
2023/02/09 06:54:14;;;;;;;;;;;;;;;;;;5036452;28;19920;-73
2023/02/09 06:56:39;;;;;;;;;;;;;;;;;;5037355;28;19924;-73
2023/02/09 06:59:05;;;;;;;;;;;;;;;;;;5036574;28;20570;-73
2023/02/09 07:01:30;;;;;;;;;;;;;;;;;;5026101;28;20959;-73
2023/02/09 07:03:58;;;;;;;;;;;;;;;;;;5022967;28;19921;-73
2023/02/09 07:06:26;;;;;;;;;;;;;;;;;;5053194;28;19916;-73
2023/02/09 07:08:57;;;;;;;;;;;;;;;;;;5033285;28;20388;-73
2023/02/09 07:11:22;;;;;;;;;;;;;;;;;;5019287;28;19925;-73
2023/02/09 07:13:47;;;;;;;;;;;;;;;;;;5031034;28;20455;-73
2023/02/09 07:16:13;;;;;;;;;;;;;;;;;;5032509;28;20382;-72
2023/02/09 07:18:38;;;;;;;;;;;;;;;;;;5035368;28;20387;-72
2023/02/09 07:21:03;;;;;;;;;;;;;;;;;;5033125;28;19932;-71
2023/02/09 07:23:28;;;;;;;;;;;;;;;;;;5034476;28;19920;-71
2023/02/09 07:25:56;;;;;;;;;;;;;;;;;;5033877;28;19920;-71
2023/02/09 07:28:21;;;;;;;;;;;;;;;;;;5022484;28;19923;-71
2023/02/09 07:30:47;;;;;;;;;;;;;;;;;;5031521;28;19921;-73
2023/02/09 07:33:12;;;;;;;;;;;;;;;;;;5031934;28;19916;-73
2023/02/09 07:35:37;;;;;;;;;;;;;;;;;;5034284;28;20865;-73
2023/02/09 07:38:02;;;;;;;;;;;;;;;;;;5015237;28;20443;-72
2023/02/09 07:40:28;;;;;;;;;;;;;;;;;;5038042;28;19917;-72
2023/02/09 07:42:56;;;;;;;;;;;;;;;;;;5026198;28;19921;-73
2023/02/09 07:45:21;;;;;;;;;;;;;;;;;;5020420;28;20012;-72
2023/02/09 07:47:49;;;;;;;;;;;;;;;;;;5021800;28;20009;-72
2023/02/09 07:50:14;;;;;;;;;;;;;;;;;;5047710;28;22090;-72
2023/02/09 07:52:39;;;;;;;;;;;;;;;;;;5033187;28;19931;-71
2023/02/09 07:55:05;;;;;;;;;;;;;;;;;;5034380;28;19927;-72
2023/02/09 07:57:31;;;;;;;;;;;;;;;;;;5021157;28;20173;-73
2023/02/09 07:59:59;;;;;;;;;;;;;;;;;;5018209;28;20055;-72
2023/02/09 08:02:27;;;;;;;;;;;;;;;;;;5029843;28;19925;-73
2023/02/09 08:04:55;;;;;;;;;;;;;;;;;;5045619;28;19917;-73
2023/02/09 08:07:20;;;;;;;;;;;;;;;;;;5033528;28;19999;-70
2023/02/09 08:09:45;;;;;;;;;;;;;;;;;;5037342;28;19947;-72
2023/02/09 08:12:11;;;;;;;;;;;;;;;;;;5019573;28;19923;-71
2023/02/09 08:14:41;;;;;;;;;;;;;;;;;;5033949;28;19968;-71
2023/02/09 08:17:22;;;;;;;;;;;;;;;;;;5033078;28;19931;-71
2023/02/09 08:19:47;;;;;;;;;;;;;;;;;;5019900;28;20245;-72
2023/02/09 08:22:15;;;;;;;;;;;;;;;;;;5030631;28;19925;-72
2023/02/09 08:24:40;;;;;;;;;;;;;;;;;;5020462;28;20033;-72
2023/02/09 08:27:05;;;;;;;;;;;;;;;;;;5024752;28;19934;-72
2023/02/09 08:29:30;;;;;;;;;;;;;;;;;;5019298;28;19928;-72
2023/02/09 08:31:56;;;;;;;;;;;;;;;;;;5033324;28;19917;-71
2023/02/09 08:34:21;;;;;;;;;;;;;;;;;;5037538;28;19920;-72
2023/02/09 08:40:05;;;;;;;;;;;;;;;;;;5037526;28;20343;-71
2023/02/09 08:42:30;;;;;;;;;;;;;;;;;;5025271;28;19947;-72
2023/02/09 08:44:56;;;;;;;;;;;;;;;;;;5034705;28;19920;-71
2023/02/09 08:47:21;;;;;;;;;;;;;;;;;;5021078;28;20587;-71
2023/02/09 08:49:50;;;;;;;;;;;;;;;;;;5021835;28;22056;-71
2023/02/09 08:52:15;;;;;;;;;;;;;;;;;;5038093;28;19916;-72
2023/02/09 08:54:43;;;;;;;;;;;;;;;;;;5025718;28;19923;-74
2023/02/09 08:57:08;;;;;;;;;;;;;;;;;;5036667;28;19920;-72
2023/02/09 08:59:36;;;;;;;;;;;;;;;;;;5035231;28;19961;-72
2023/02/09 09:02:07;;;;;;;;;;;;;;;;;;5034658;28;20020;-72
2023/02/09 09:04:32;;;;;;;;;;;;;;;;;;5018320;28;19946;-72
2023/02/09 09:07:03;;;;;;;;;;;;;;;;;;5036556;28;19964;-72
2023/02/09 09:09:31;;;;;;;;;;;;;;;;;;5024983;28;19967;-72
2023/02/09 09:11:58;;;;;;;;;;;;;;;;;;5025357;28;19920;-72
2023/02/09 09:14:25;;;;;;;;;;;;;;;;;;5037302;28;19958;-73
2023/02/09 09:16:53;;;;;;;;;;;;;;;;;;5037420;28;19928;-74
2023/02/09 09:19:21;;;;;;;;;;;;;;;;;;5036784;28;19917;-77
2023/02/09 09:21:48;;;;;;;;;;;;;;;;;;5037895;28;19999;-73
2023/02/09 09:24:16;;;;;;;;;;;;;;;;;;5024244;28;20069;-74
2023/02/09 09:26:41;;;;;;;;;;;;;;;;;;5034714;28;19920;-74
2023/02/09 09:29:07;;;;;;;;;;;;;;;;;;5020231;28;20201;-73
2023/02/09 09:31:32;;;;;;;;;;;;;;;;;;5035075;28;19921;-74
2023/02/09 09:33:59;;;;;;;;;;;;;;;;;;5023521;28;19924;-74
2023/02/09 09:36:24;;;;;;;;;;;;;;;;;;5036107;28;20387;-74
2023/02/09 09:38:50;;;;;;;;;;;;;;;;;;5032339;28;20569;-73
2023/02/09 09:41:20;;;;;;;;;;;;;;;;;;5033976;28;19951;-73
2023/02/09 09:43:48;;;;;;;;;;;;;;;;;;5033455;28;20206;-74
2023/02/09 09:46:19;;;;;;;;;;;;;;;;;;5034642;28;20115;-72
2023/02/09 09:48:44;;;;;;;;;;;;;;;;;;5034153;28;19947;-74
2023/02/09 09:51:09;;;;;;;;;;;;;;;;;;5035904;28;20632;-74
2023/02/09 09:53:39;;;;;;;;;;;;;;;;;;5034741;28;19921;-72
2023/02/09 09:56:04;;;;;;;;;;;;;;;;;;5018474;28;19988;-72
2023/02/09 09:58:32;;;;;;;;;;;;;;;;;;5032602;28;20010;-71
2023/02/09 10:00:58;;;;;;;;;;;;;;;;;;5034586;28;20047;-72
2023/02/09 10:03:26;;;;;;;;;;;;;;;;;;5034403;28;19927;-72
2023/02/09 10:05:51;;;;;;;;;;;;;;;;;;5032448;28;20412;-72
2023/02/09 10:08:16;;;;;;;;;;;;;;;;;;5036222;28;20434;-73
2023/02/09 10:10:42;;;;;;;;;;;;;;;;;;5032671;28;19921;-72
2023/02/09 10:13:10;;;;;;;;;;;;;;;;;;5024406;28;19923;-71
2023/02/09 10:15:38;;;;;;;;;;;;;;;;;;5034256;28;20084;-72
2023/02/09 10:18:03;;;;;;;;;;;;;;;;;;5031667;28;20683;-72
2023/02/09 10:20:30;;;;;;;;;;;;;;;;;;5030938;28;20233;-72
2023/02/09 10:22:58;;;;;;;;;;;;;;;;;;5036046;28;19920;-73
2023/02/09 10:25:23;;;;;;;;;;;;;;;;;;5022974;28;20384;-71
2023/02/09 10:27:49;;;;;;;;;;;;;;;;;;5032043;28;19932;-72
2023/02/09 10:30:17;;;;;;;;;;;;;;;;;;5034779;28;20269;-72
2023/02/09 10:32:42;;;;;;;;;;;;;;;;;;5032067;28;19944;-71
2023/02/09 10:35:10;;;;;;;;;;;;;;;;;;5035412;28;19931;-71
2023/02/09 10:37:35;;;;;;;;;;;;;;;;;;5040461;28;19930;-70
2023/02/09 10:40:01;;;;;;;;;;;;;;;;;;5036285;28;19917;-70
2023/02/09 10:42:28;;;;;;;;;;;;;;;;;;5034940;28;19977;-71
2023/02/09 10:44:57;;;;;;;;;;;;;;;;;;5032899;28;19930;-71
2023/02/09 10:47:25;;;;;;;;;;;;;;;;;;5019009;28;19921;-70
2023/02/09 10:49:51;;;;;;;;;;;;;;;;;;5017916;28;20639;-69
2023/02/09 10:52:16;;;;;;;;;;;;;;;;;;5033762;28;19927;-68
2023/02/09 10:54:41;;;;;;;;;;;;;;;;;;5021309;28;19920;-67
2023/02/09 10:57:09;;;;;;;;;;;;;;;;;;5020586;28;21896;-68
2023/02/09 10:59:35;;;;;;;;;;;;;;;;;;5023810;28;19920;-68
2023/02/09 11:02:00;;;;;;;;;;;;;;;;;;5047328;28;20814;-67
2023/02/09 11:04:26;;;;;;;;;;;;;;;;;;5030666;28;20265;-67
2023/02/09 11:06:51;;;;;;;;;;;;;;;;;;5032394;28;19920;-67
2023/02/09 11:09:19;;;;;;;;;;;;;;;;;;5024374;28;20006;-67
2023/02/09 11:11:44;;;;;;;;;;;;;;;;;;5032600;28;20248;-66
2023/02/09 11:14:10;;;;;;;;;;;;;;;;;;5035034;28;19992;-66
2023/02/09 11:16:37;;;;;;;;;;;;;;;;;;5033613;28;21644;-66
2023/02/09 11:19:08;;;;;;;;;;;;;;;;;;5022678;28;20253;-65
2023/02/09 11:21:33;;;;;;;;;;;;;;;;;;5030576;28;20893;-66
2023/02/09 11:23:58;;;;;;;;;;;;;;;;;;5034349;28;20260;-65
2023/02/09 11:26:29;;;;;;;;;;;;;;;;;;5022048;28;19928;-64
2023/02/09 11:28:57;;;;;;;;;;;;;;;;;;5033604;28;19921;-64
2023/02/09 11:31:23;;;;;;;;;;;;;;;;;;5033259;28;20006;-64
2023/02/09 11:33:50;;;;;;;;;;;;;;;;;;5022688;28;19921;-63
2023/02/09 11:36:21;;;;;;;;;;;;;;;;;;5019257;28;19917;-64
2023/02/09 11:38:46;;;;;;;;;;;;;;;;;;5031653;28;19920;-63
2023/02/09 11:44:02;;;;;;;;;;;;;;;;;;5014676;28;20086;-63
2023/02/09 11:46:27;;;;;;;;;;;;;;;;;;5022211;28;20011;-62
2023/02/09 11:48:52;;;;;;;;;;;;;;;;;;5031242;28;20007;-64
2023/02/09 11:51:21;;;;;;;;;;;;;;;;;;5019527;28;21312;-62
2023/02/09 11:53:46;;;;;;;;;;;;;;;;;;5031877;28;19921;-63
2023/02/09 11:56:14;;;;;;;;;;;;;;;;;;5032131;28;19997;-63
2023/02/09 11:58:39;;;;;;;;;;;;;;;;;;5032971;28;20468;-63
2023/02/09 12:01:04;;;;;;;;;;;;;;;;;;5031132;28;20550;-64
2023/02/09 12:03:32;;;;;;;;;;;;;;;;;;5033547;28;19979;-63
2023/02/09 12:05:58;;;;;;;;;;;;;;;;;;5029811;28;20347;-63
2023/02/09 12:08:23;;;;;;;;;;;;;;;;;;5034584;28;19921;-63
2023/02/09 12:10:51;;;;;;;;;;;;;;;;;;5018512;28;20189;-64
2023/02/09 12:13:16;;;;;;;;;;;;;;;;;;5030571;28;19920;-64
2023/02/09 12:15:42;;;;;;;;;;;;;;;;;;5019728;28;19959;-64
2023/02/09 12:18:07;;;;;;;;;;;;;;;;;;5022063;28;20120;-64
2023/02/09 12:20:35;;;;;;;;;;;;;;;;;;5029741;28;19921;-64
2023/02/09 12:23:00;;;;;;;;;;;;;;;;;;5028446;28;20113;-63
2023/02/09 12:25:26;;;;;;;;;;;;;;;;;;5031275;28;19920;-63
2023/02/09 12:27:51;;;;;;;;;;;;;;;;;;5033324;28;20321;-64
2023/02/09 12:33:32;;;;;;;;;;;;;;;;;;5031630;28;20331;-63
2023/02/09 12:35:59;;;;;;;;;;;;;;;;;;5031363;28;19984;-64
2023/02/09 12:38:24;;;;;;;;;;;;;;;;;;5033496;28;20176;-63
2023/02/09 12:40:50;;;;;;;;;;;;;;;;;;5031301;28;20000;-64
2023/02/09 12:43:18;;;;;;;;;;;;;;;;;;5031323;28;19924;-64
2023/02/09 12:45:43;;;;;;;;;;;;;;;;;;5027957;28;20019;-64
2023/02/09 12:48:11;;;;;;;;;;;;;;;;;;5029062;28;19927;-64
2023/02/09 12:50:39;;;;;;;;;;;;;;;;;;5033704;28;20496;-63
2023/02/09 12:53:04;;;;;;;;;;;;;;;;;;5020387;28;19920;-64
2023/02/09 12:55:32;;;;;;;;;;;;;;;;;;5031414;28;20425;-64
2023/02/09 12:57:57;;;;;;;;;;;;;;;;;;5029832;28;20194;-64
2023/02/09 13:00:23;;;;;;;;;;;;;;;;;;5015918;28;20046;-63
2023/02/09 13:02:48;;;;;;;;;;;;;;;;;;5019459;28;19925;-64
2023/02/09 13:05:13;;;;;;;;;;;;;;;;;;5033537;28;21446;-64
2023/02/09 13:07:41;;;;;;;;;;;;;;;;;;5031992;28;19960;-63
2023/02/09 13:10:09;;;;;;;;;;;;;;;;;;5021473;28;19921;-64
2023/02/09 13:12:36;;;;;;;;;;;;;;;;;;5031532;28;19921;-64
2023/02/09 13:15:02;;;;;;;;;;;;;;;;;;5031825;28;20240;-63
2023/02/09 13:17:27;;;;;;;;;;;;;;;;;;5033760;28;19933;-64
2023/02/09 13:19:57;;;;;;;;;;;;;;;;;;5034318;28;19931;-64
2023/02/09 13:22:26;;;;;;;;;;;;;;;;;;5019539;28;19927;-65
2023/02/09 13:24:51;;;;;;;;;;;;;;;;;;5035317;28;19953;-64
2023/02/09 13:27:16;;;;;;;;;;;;;;;;;;5042311;28;20132;-64
2023/02/09 13:29:42;;;;;;;;;;;;;;;;;;5025315;28;19920;-64
2023/02/09 13:32:07;;;;;;;;;;;;;;;;;;5032107;28;20002;-63
2023/02/09 13:34:35;;;;;;;;;;;;;;;;;;5033238;28;19917;-63
2023/02/09 13:37:00;;;;;;;;;;;;;;;;;;5034168;28;19921;-64
2023/02/09 13:39:26;;;;;;;;;;;;;;;;;;5035099;28;20518;-64
2023/02/09 13:45:10;;;;;;;;;;;;;;;;;;5034064;28;19971;-63
2023/02/09 13:47:37;;;;;;;;;;;;;;;;;;5033503;28;20364;-63
2023/02/09 13:50:03;;;;;;;;;;;;;;;;;;5022301;28;20460;-63
2023/02/09 13:52:28;;;;;;;;;;;;;;;;;;5031481;28;20039;-64
2023/02/09 13:54:53;;;;;;;;;;;;;;;;;;5034490;28;19989;-64
2023/02/09 13:57:22;;;;;;;;;;;;;;;;;;5035270;28;19920;-64
2023/02/09 13:59:48;;;;;;;;;;;;;;;;;;5035251;28;19944;-63
2023/02/09 14:02:17;;;;;;;;;;;;;;;;;;5033814;28;19935;-62
2023/02/09 14:04:42;;;;;;;;;;;;;;;;;;5033082;28;19917;-65
2023/02/09 14:07:09;;;;;;;;;;;;;;;;;;5033665;28;19921;-64
2023/02/09 14:09:37;;;;;;;;;;;;;;;;;;5021845;28;20624;-64
2023/02/09 14:12:05;;;;;;;;;;;;;;;;;;5033975;28;19971;-64
2023/02/09 14:16:05;;;;;;;;;;;;;;;;;;5033006;28;20579;-66
2023/02/09 14:17:18;;;;;;;;;;;;;;;;;;5031643;28;19978;-64
2023/02/09 14:19:44;;;;;;;;;;;;;;;;;;5034179;28;20533;-64
2023/02/09 14:22:09;;;;;;;;;;;;;;;;;;5023814;28;19977;-63
2023/02/09 14:24:39;;;;;;;;;;;;;;;;;;5023690;28;19920;-66
2023/02/09 14:27:05;;;;;;;;;;;;;;;;;;5049062;28;19920;-63
2023/02/09 14:29:30;;;;;;;;;;;;;;;;;;5020363;28;19923;-63
2023/02/09 14:31:58;;;;;;;;;;;;;;;;;;5035771;28;20387;-64
2023/02/09 14:34:26;;;;;;;;;;;;;;;;;;5024976;28;19920;-64
2023/02/09 14:36:51;;;;;;;;;;;;;;;;;;5017623;28;19928;-64
2023/02/09 14:39:22;;;;;;;;;;;;;;;;;;5019639;28;19921;-64
2023/02/09 14:41:50;;;;;;;;;;;;;;;;;;5049592;28;19924;-64
2023/02/09 14:44:19;;;;;;;;;;;;;;;;;;5023273;28;20001;-66
2023/02/09 14:46:44;;;;;;;;;;;;;;;;;;5032146;28;19952;-63
2023/02/09 14:49:12;;;;;;;;;;;;;;;;;;5032267;28;20019;-64
2023/02/09 14:51:39;;;;;;;;;;;;;;;;;;5032441;28;20084;-65
2023/02/09 14:54:05;;;;;;;;;;;;;;;;;;5034638;28;19916;-65
2023/02/09 14:56:35;;;;;;;;;;;;;;;;;;5030925;28;19923;-65
2023/02/09 14:59:00;;;;;;;;;;;;;;;;;;5030906;28;19930;-64
2023/02/09 15:01:28;;;;;;;;;;;;;;;;;;5031525;28;19955;-64
2023/02/09 15:03:54;;;;;;;;;;;;;;;;;;5023111;28;21516;-64
2023/02/09 15:06:22;;;;;;;;;;;;;;;;;;5031662;28;20338;-64
2023/02/09 15:08:47;;;;;;;;;;;;;;;;;;5034553;28;20434;-63
2023/02/09 15:13:57;;;;;;;;;;;;;;;;;;5033948;28;19962;-64
2023/02/09 15:16:22;;;;;;;;;;;;;;;;;;5021690;28;20894;-64
2023/02/09 15:18:47;;;;;;;;;;;;;;;;;;5032748;28;19959;-64
2023/02/09 15:21:12;;;;;;;;;;;;;;;;;;5033705;28;19928;-64
2023/02/09 15:23:38;;;;;;;;;;;;;;;;;;5030740;28;19927;-64
2023/02/09 15:26:06;;;;;;;;;;;;;;;;;;5034062;28;20023;-64
2023/02/09 15:28:33;;;;;;;;;;;;;;;;;;5030078;28;19920;-65
2023/02/09 15:31:01;;;;;;;;;;;;;;;;;;5033886;28;20251;-64
2023/02/09 15:33:29;;;;;;;;;;;;;;;;;;5021511;28;19921;-64
2023/02/09 15:38:44;;;;;;;;;;;;;;;;;;5029143;28;19920;-64
2023/02/09 15:49:24;;;;;;;;;;;;;;;;;;5033283;28;19928;-64
2023/02/09 15:51:49;;;;;;;;;;;;;;;;;;5017391;28;20398;-65
2023/02/09 15:54:15;;;;;;;;;;;;;;;;;;5032942;28;19975;-64
2023/02/09 15:56:40;;;;;;;;;;;;;;;;;;5033235;28;19921;-65
2023/02/09 15:59:08;;;;;;;;;;;;;;;;;;5047135;28;19975;-65
2023/02/09 16:01:35;;;;;;;;;;;;;;;;;;5021657;28;19936;-65
2023/02/09 16:04:01;;;;;;;;;;;;;;;;;;5016268;28;19955;-65
2023/02/09 16:06:38;;;;;;;;;;;;;;;;;;5030496;28;20127;-64
2023/02/09 16:09:06;;;;;;;;;;;;;;;;;;5034243;28;19920;-65
2023/02/09 16:11:38;;;;;;;;;;;;;;;;;;5031410;28;19954;-65
2023/02/09 16:14:04;;;;;;;;;;;;;;;;;;5033375;28;20615;-65
2023/02/09 16:16:30;;;;;;;;;;;;;;;;;;5030553;28;19997;-65
2023/02/09 16:19:01;;;;;;;;;;;;;;;;;;5048650;28;20194;-65
2023/02/09 16:21:26;;;;;;;;;;;;;;;;;;5030095;28;20027;-65
2023/02/09 16:23:54;;;;;;;;;;;;;;;;;;5018810;28;19942;-64
2023/02/09 16:26:24;;;;;;;;;;;;;;;;;;5019997;28;19920;-64
2023/02/09 16:28:52;;;;;;;;;;;;;;;;;;5030309;28;20116;-64
2023/02/09 16:31:18;;;;;;;;;;;;;;;;;;5029845;28;19943;-64
2023/02/09 16:33:43;;;;;;;;;;;;;;;;;;5017909;28;20357;-64
2023/02/09 16:36:09;;;;;;;;;;;;;;;;;;5018404;28;19921;-64
2023/02/09 16:38:39;;;;;;;;;;;;;;;;;;5032267;28;20051;-64
2023/02/09 16:41:45;;;;;;;;;;;;;;;;;;5031607;28;20790;-64
2023/02/09 16:43:52;;;;;;;;;;;;;;;;;;5031504;28;19928;-64
2023/02/09 16:46:17;;;;;;;;;;;;;;;;;;5032735;28;19928;-64
2023/02/09 16:48:45;;;;;;;;;;;;;;;;;;5033330;28;19940;-63
2023/02/09 16:51:10;;;;;;;;;;;;;;;;;;5031397;28;20025;-64
2023/02/09 16:53:35;;;;;;;;;;;;;;;;;;5035274;28;19978;-64
2023/02/09 16:56:00;;;;;;;;;;;;;;;;;;5025567;28;20528;-64
2023/02/09 16:58:26;;;;;;;;;;;;;;;;;;5036221;28;20041;-64
2023/02/09 17:00:53;;;;;;;;;;;;;;;;;;5035311;28;19924;-65
2023/02/09 17:03:19;;;;;;;;;;;;;;;;;;5022971;28;19921;-64
2023/02/09 17:05:46;;;;;;;;;;;;;;;;;;5019923;28;20058;-65
2023/02/09 17:08:12;;;;;;;;;;;;;;;;;;5035998;28;20266;-65
2023/02/09 17:10:39;;;;;;;;;;;;;;;;;;5033949;28;19924;-64
2023/02/09 17:13:07;;;;;;;;;;;;;;;;;;5037714;28;19969;-65
2023/02/09 17:15:33;;;;;;;;;;;;;;;;;;5051441;28;19917;-65
2023/02/09 17:18:01;;;;;;;;;;;;;;;;;;5032568;28;20477;-64
2023/02/09 17:20:29;;;;;;;;;;;;;;;;;;5033862;28;20364;-66
2023/02/09 17:22:54;;;;;;;;;;;;;;;;;;5036002;28;19925;-65
2023/02/09 17:25:22;;;;;;;;;;;;;;;;;;5023659;28;20095;-64
2023/02/09 17:27:47;;;;;;;;;;;;;;;;;;5049634;28;19927;-65
2023/02/09 17:30:14;;;;;;;;;;;;;;;;;;5023006;28;19921;-65